MOL Maestro — 3EKT9 — position and weather

sailwx.info

Track history (hours):
 
Tides and Currents Weather Stations Pressure Air Temp Water Temp Dewpoint Dewpoint Depression Visibility Wind Speed Wind Dir Waves Ship Positions

MOL Maestro

Last reported at 2017-Oct-12 21:22 UTC. Time now 2017-Oct-22 23:06 UTC.
Position N 38°09' W 124°26'.
Warning: this ship's position is 10 days out of date.

Length 302 m; draft 11.4 m.

Type: Ship (hazmat cat A). MMSI: 373457000.

Date/timePositionNaut miles runAvg speedWind from/ knotsBaromVisibWave heightAir tempDewpointWater temp
2017-Oct-12 21:22N 38°09' W 124°26'613.8
2017-Oct-12 20:58N 38°10' W 124°19'613.7
2017-Oct-12 20:30N 38°10' W 124°11'813.5
2017-Oct-12 19:56N 38°10' W 124°01'613.1
2017-Oct-12 19:30N 38°10' W 123°54'713.1
2017-Oct-12 19:00N 38°10' W 123°45'713.4
2017-Oct-12 18:30N 38°10' W 123°37'713.4
2017-Oct-12 18:00N 38°10' W 123°28'612.4
2017-Oct-12 17:30N 38°10' W 123°21'5 9.3
2017-Oct-12 17:00N 38°06' W 123°17'5 9.5
2017-Oct-12 16:30N 38°02' W 123°13'5 9.2
2017-Oct-12 16:00N 37°59' W 123°09'5 9.1
2017-Oct-12 15:30N 37°57' W 123°04'5 9.2
2017-Oct-12 15:00N 37°54' W 122°59'5 9.5
2017-Oct-12 14:30N 37°52' W 122°54'5 9.4
2017-Oct-12 14:00N 37°50' W 122°49'5 9.3
2017-Oct-12 13:30N 37°47' W 122°44'3 6.3
2017-Oct-12 13:00N 37°46' W 122°40'713.2
2017-Oct-12 12:31N 37°48' W 122°32'713.1
2017-Oct-12 12:00N 37°50' W 122°24'4 7.3
2017-Oct-12 11:30N 37°49' W 122°20'0 0.4
2017-Oct-12 10:59N 37°49' W 122°20'0 0.1
2017-Oct-12 10:29N 37°49' W 122°20'0 0.0
2017-Oct-12 09:59N 37°49' W 122°20'0 0.0
2017-Oct-12 09:29N 37°49' W 122°20'0 0.1
2017-Oct-12 08:59N 37°49' W 122°20'0 0.1
2017-Oct-12 08:29N 37°49' W 122°20'0 0.1
2017-Oct-12 07:59N 37°49' W 122°20'0 0.1
2017-Oct-12 07:29N 37°49' W 122°20'0 0.0
2017-Oct-12 06:59N 37°49' W 122°20'0 0.1
2017-Oct-12 06:29N 37°49' W 122°20'0 0.0
2017-Oct-12 05:59N 37°49' W 122°20'0 0.0
2017-Oct-12 05:29N 37°49' W 122°20'0 0.0
2017-Oct-12 04:59N 37°49' W 122°20'0 0.0
2017-Oct-12 04:29N 37°49' W 122°20'0 0.0
2017-Oct-12 03:59N 37°49' W 122°20'0 0.0
2017-Oct-12 03:29N 37°49' W 122°20'0 0.0
2017-Oct-12 02:59N 37°49' W 122°20'0 0.0
2017-Oct-12 02:29N 37°49' W 122°20'0 0.0
2017-Oct-12 01:59N 37°49' W 122°20'0 0.0
2017-Oct-12 01:29N 37°49' W 122°20'0 0.0
2017-Oct-12 00:59N 37°49' W 122°20'0 0.0
2017-Oct-12 00:29N 37°49' W 122°20'0 0.0
2017-Oct-11 23:59N 37°49' W 122°20'0 0.0
2017-Oct-11 23:30N 37°49' W 122°20'0 0.7
2017-Oct-11 23:00N 37°49' W 122°20'3 5.8
2017-Oct-11 22:30N 37°49' W 122°24'612.0
2017-Oct-11 22:01N 37°48' W 122°31'714.8
2017-Oct-11 21:31N 37°45' W 122°40'4 8.2
2017-Oct-11 21:00N 37°41' W 122°40'5 9.2
2017-Oct-11 20:31N 37°36' W 122°40'5 9.3
2017-Oct-11 20:01N 37°32' W 122°40'5 9.1
2017-Oct-11 19:30N 37°27' W 122°40'5 9.4
2017-Oct-11 19:00N 37°22' W 122°40'5 9.2
2017-Oct-11 18:30N 37°18' W 122°40'4 8.9
2017-Oct-11 18:00N 37°13' W 122°39'5 9.4
2017-Oct-11 17:30N 37°09' W 122°39'611.5
2017-Oct-11 17:00N 37°03' W 122°36'19811.7
2017-Oct-11 00:01N 34°19' W 120°20'5 9.1
2017-Oct-10 23:29N 34°18' W 120°14'5 9.1
2017-Oct-10 22:58N 34°16' W 120°08'4 9.3
2017-Oct-10 22:30N 34°15' W 120°04'5 9.2
2017-Oct-10 22:00N 34°14' W 119°58'5 9.8
2017-Oct-10 21:30N 34°13' W 119°52'5 9.7
2017-Oct-10 21:00N 34°12' W 119°47'5 9.4
2017-Oct-10 20:30N 34°10' W 119°41'5 9.6
2017-Oct-10 20:00N 34°09' W 119°36'5 9.7
2017-Oct-10 19:30N 34°08' W 119°30'5 9.7
2017-Oct-10 19:01N 34°07' W 119°25'510.3
2017-Oct-10 18:30N 34°05' W 119°18'510.1
2017-Oct-10 18:00N 34°03' W 119°13'510.3
2017-Oct-10 17:30N 34°01' W 119°07'510.7
2017-Oct-10 17:00N 33°58' W 119°02'510.7
2017-Oct-10 16:30N 33°55' W 118°56'510.6
2017-Oct-10 16:00N 33°53' W 118°51'510.6
2017-Oct-10 15:31N 33°50' W 118°45'510.7
2017-Oct-10 15:00N 33°47' W 118°40'1010.3
2017-Oct-10 14:00N 33°42' W 118°29'510.2
2017-Oct-10 13:30N 33°40' W 118°23'5 9.9
2017-Oct-10 13:00N 33°39' W 118°18'5 9.1
2017-Oct-10 12:30N 33°42' W 118°15'3 5.2
2017-Oct-10 12:00N 33°45' W 118°17'1 2.5
2017-Oct-10 11:30N 33°46' W 118°17'0 0.3
2017-Oct-10 10:58N 33°46' W 118°16'0 0.0
2017-Oct-10 10:28N 33°46' W 118°16'0 0.0
2017-Oct-10 09:58N 33°46' W 118°16'0 0.0
2017-Oct-10 09:28N 33°46' W 118°16'0 0.0
2017-Oct-10 08:58N 33°46' W 118°16'0 0.0
2017-Oct-10 08:28N 33°46' W 118°16'0 0.0
2017-Oct-10 07:58N 33°46' W 118°16'0 0.0
2017-Oct-10 07:25N 33°46' W 118°16'0 0.0
2017-Oct-10 06:58N 33°46' W 118°16'0 0.0
2017-Oct-10 06:25N 33°46' W 118°16'0 0.0
2017-Oct-10 05:58N 33°46' W 118°16'0 0.0
2017-Oct-10 05:28N 33°46' W 118°16'0 0.0
2017-Oct-10 04:58N 33°46' W 118°16'0 0.0
2017-Oct-10 04:28N 33°46' W 118°16'0 0.0
2017-Oct-10 03:55N 33°46' W 118°16'0 0.0
2017-Oct-10 03:28N 33°46' W 118°16'0 0.0
2017-Oct-10 02:58N 33°46' W 118°16'0 0.0
2017-Oct-10 02:28N 33°46' W 118°16'0 0.0
2017-Oct-10 01:58N 33°46' W 118°16'0 0.0
2017-Oct-10 01:25N 33°46' W 118°16'0 0.0
2017-Oct-10 00:58N 33°46' W 118°16'0 0.0
2017-Oct-10 00:31N 33°46' W 118°16'0 0.0
2017-Oct-09 23:52N 33°46' W 118°16'0 0.0
2017-Oct-09 23:28N 33°46' W 118°16'0 0.0
2017-Oct-09 22:58N 33°46' W 118°16'0 0.0
2017-Oct-09 22:28N 33°46' W 118°16'0 0.5
2017-Oct-09 22:00N 33°46' W 118°16'2 3.2
2017-Oct-09 21:30N 33°44' W 118°17'3 6.8
2017-Oct-09 21:00N 33°41' W 118°14'4 7.5
2017-Oct-09 20:30N 33°38' W 118°12'4 8.4
2017-Oct-09 20:00N 33°35' W 118°09'510.1
2017-Oct-09 19:31N 33°30' W 118°07'510.3
2017-Oct-09 19:00N 33°25' W 118°05'510.7
2017-Oct-09 18:30N 33°20' W 118°03'610.9
2017-Oct-09 18:00N 33°15' W 118°00'510.9
2017-Oct-09 17:31N 33°10' W 117°58'611.1
2017-Oct-09 17:00N 33°05' W 117°56'4 7.2
2017-Oct-09 16:31N 33°01' W 117°54'714.0
2017-Oct-09 16:00N 32°55' W 117°51'1019.2
2017-Oct-09 15:30N 32°46' W 117°46'1020.1
2017-Oct-09 15:01N 32°37' W 117°41'1020.8
2017-Oct-09 14:30N 32°27' W 117°37'1020.7
2017-Oct-09 14:00N 32°17' W 117°34'1020.8
2017-Oct-09 13:31N 32°07' W 117°31'1320.5
2017-Oct-09 12:53N 31°55' W 117°26'2620.5
2017-Oct-09 11:35N 31°29' W 117°18'1120.8
2017-Oct-09 11:04N 31°19' W 117°15'320.5
2017-Oct-09 10:56N 31°16' W 117°14'1420.4
2017-Oct-09 10:15N 31°03' W 117°09'920.1
2017-Oct-09 09:48N 30°54' W 117°06'920.2
2017-Oct-09 09:22N 30°46' W 117°04'4120.1
2017-Oct-09 07:21N 30°07' W 116°51'1220.3
2017-Oct-09 06:45N 29°55' W 116°47'2220.7
2017-Oct-09 05:40N 29°34' W 116°40'4520.6
2017-Oct-09 03:30N 28°51' W 116°24'2220.6
2017-Oct-09 02:27N 28°31' W 116°17'1020.6
2017-Oct-09 01:59N 28°21' W 116°13'1020.6
2017-Oct-09 01:30N 28°12' W 116°10'1920.7
2017-Oct-09 00:36N 27°55' W 115°60'221.2
2017-Oct-09 00:30N 27°54' W 115°58'1021.2
2017-Oct-09 00:00N 27°45' W 115°51'1121.1
2017-Oct-08 23:29N 27°37' W 115°43'1021.2
2017-Oct-08 23:00N 27°29' W 115°36'1121.5
2017-Oct-08 22:30N 27°20' W 115°29'1122.3
2017-Oct-08 22:00N 27°11' W 115°22'1321.4
2017-Oct-08 21:23N 27°01' W 115°12'821.2
2017-Oct-08 20:59N 26°54' W 115°07'1020.8
2017-Oct-08 20:30N 26°46' W 114°60'1021.0
2017-Oct-08 20:00N 26°38' W 114°53'1221.0
2017-Oct-08 19:27N 26°28' W 114°45'921.3
2017-Oct-08 19:00N 26°21' W 114°39'1121.6
2017-Oct-08 18:30N 26°12' W 114°31'1321.8
2017-Oct-08 17:54N 26°02' W 114°23'921.7
2017-Oct-08 17:30N 25°55' W 114°17'1321.5
2017-Oct-08 16:55N 25°45' W 114°08'921.5
2017-Oct-08 16:29N 25°38' W 114°02'1021.4
2017-Oct-08 16:00N 25°29' W 113°55'2321.3
2017-Oct-08 14:55N 25°11' W 113°39'3521.3
2017-Oct-08 13:16N 24°43' W 113°16'821.9
2017-Oct-08 12:56N 24°37' W 113°11'921.3
2017-Oct-08 12:30N 24°30' W 113°05'  
Track history (hours):
 
Tides and Currents Weather Stations Pressure Air Temp Water Temp Dewpoint Dewpoint Depression Visibility Wind Speed Wind Dir Waves Ship Positions

MOL Maestro

Last reported at 2017-Oct-12 21:22 UTC. Time now 2017-Oct-22 23:06 UTC.
Position N 38°09' W 124°26'.
Warning: this ship's position is 10 days out of date.

Length 302 m; draft 11.4 m.

Type: Ship (hazmat cat A). MMSI: 373457000.

Date/timePositionNaut miles runAvg speedWind from/ knotsBaromVisibWave heightAir tempDewpointWater temp
2017-Oct-12 21:22N 38°09' W 124°26'613.8
2017-Oct-12 20:58N 38°10' W 124°19'613.7
2017-Oct-12 20:30N 38°10' W 124°11'813.5
2017-Oct-12 19:56N 38°10' W 124°01'613.1
2017-Oct-12 19:30N 38°10' W 123°54'713.1
2017-Oct-12 19:00N 38°10' W 123°45'713.4
2017-Oct-12 18:30N 38°10' W 123°37'713.4
2017-Oct-12 18:00N 38°10' W 123°28'612.4
2017-Oct-12 17:30N 38°10' W 123°21'5 9.3
2017-Oct-12 17:00N 38°06' W 123°17'5 9.5
2017-Oct-12 16:30N 38°02' W 123°13'5 9.2
2017-Oct-12 16:00N 37°59' W 123°09'5 9.1
2017-Oct-12 15:30N 37°57' W 123°04'5 9.2
2017-Oct-12 15:00N 37°54' W 122°59'5 9.5
2017-Oct-12 14:30N 37°52' W 122°54'5 9.4
2017-Oct-12 14:00N 37°50' W 122°49'5 9.3
2017-Oct-12 13:30N 37°47' W 122°44'3 6.3
2017-Oct-12 13:00N 37°46' W 122°40'713.2
2017-Oct-12 12:31N 37°48' W 122°32'713.1
2017-Oct-12 12:00N 37°50' W 122°24'4 7.3
2017-Oct-12 11:30N 37°49' W 122°20'0 0.4
2017-Oct-12 10:59N 37°49' W 122°20'0 0.1
2017-Oct-12 10:29N 37°49' W 122°20'0 0.0
2017-Oct-12 09:59N 37°49' W 122°20'0 0.0
2017-Oct-12 09:29N 37°49' W 122°20'0 0.1
2017-Oct-12 08:59N 37°49' W 122°20'0 0.1
2017-Oct-12 08:29N 37°49' W 122°20'0 0.1
2017-Oct-12 07:59N 37°49' W 122°20'0 0.1
2017-Oct-12 07:29N 37°49' W 122°20'0 0.0
2017-Oct-12 06:59N 37°49' W 122°20'0 0.1
2017-Oct-12 06:29N 37°49' W 122°20'0 0.0
2017-Oct-12 05:59N 37°49' W 122°20'0 0.0
2017-Oct-12 05:29N 37°49' W 122°20'0 0.0
2017-Oct-12 04:59N 37°49' W 122°20'0 0.0
2017-Oct-12 04:29N 37°49' W 122°20'0 0.0
2017-Oct-12 03:59N 37°49' W 122°20'0 0.0
2017-Oct-12 03:29N 37°49' W 122°20'0 0.0
2017-Oct-12 02:59N 37°49' W 122°20'0 0.0
2017-Oct-12 02:29N 37°49' W 122°20'0 0.0
2017-Oct-12 01:59N 37°49' W 122°20'0 0.0
2017-Oct-12 01:29N 37°49' W 122°20'0 0.0
2017-Oct-12 00:59N 37°49' W 122°20'0 0.0
2017-Oct-12 00:29N 37°49' W 122°20'0 0.0
2017-Oct-11 23:59N 37°49' W 122°20'0 0.0
2017-Oct-11 23:30N 37°49' W 122°20'0 0.7
2017-Oct-11 23:00N 37°49' W 122°20'3 5.8
2017-Oct-11 22:30N 37°49' W 122°24'612.0
2017-Oct-11 22:01N 37°48' W 122°31'714.8
2017-Oct-11 21:31N 37°45' W 122°40'4 8.2
2017-Oct-11 21:00N 37°41' W 122°40'5 9.2
2017-Oct-11 20:31N 37°36' W 122°40'5 9.3
2017-Oct-11 20:01N 37°32' W 122°40'5 9.1
2017-Oct-11 19:30N 37°27' W 122°40'5 9.4
2017-Oct-11 19:00N 37°22' W 122°40'5 9.2
2017-Oct-11 18:30N 37°18' W 122°40'4 8.9
2017-Oct-11 18:00N 37°13' W 122°39'5 9.4
2017-Oct-11 17:30N 37°09' W 122°39'611.5
2017-Oct-11 17:00N 37°03' W 122°36'19811.7
2017-Oct-11 00:01N 34°19' W 120°20'5 9.1
2017-Oct-10 23:29N 34°18' W 120°14'5 9.1
2017-Oct-10 22:58N 34°16' W 120°08'4 9.3
2017-Oct-10 22:30N 34°15' W 120°04'5 9.2
2017-Oct-10 22:00N 34°14' W 119°58'5 9.8
2017-Oct-10 21:30N 34°13' W 119°52'5 9.7
2017-Oct-10 21:00N 34°12' W 119°47'5 9.4
2017-Oct-10 20:30N 34°10' W 119°41'5 9.6
2017-Oct-10 20:00N 34°09' W 119°36'5 9.7
2017-Oct-10 19:30N 34°08' W 119°30'5 9.7
2017-Oct-10 19:01N 34°07' W 119°25'510.3
2017-Oct-10 18:30N 34°05' W 119°18'510.1
2017-Oct-10 18:00N 34°03' W 119°13'510.3
2017-Oct-10 17:30N 34°01' W 119°07'510.7
2017-Oct-10 17:00N 33°58' W 119°02'510.7
2017-Oct-10 16:30N 33°55' W 118°56'510.6
2017-Oct-10 16:00N 33°53' W 118°51'510.6
2017-Oct-10 15:31N 33°50' W 118°45'510.7
2017-Oct-10 15:00N 33°47' W 118°40'1010.3
2017-Oct-10 14:00N 33°42' W 118°29'510.2
2017-Oct-10 13:30N 33°40' W 118°23'5 9.9
2017-Oct-10 13:00N 33°39' W 118°18'5 9.1
2017-Oct-10 12:30N 33°42' W 118°15'3 5.2
2017-Oct-10 12:00N 33°45' W 118°17'1 2.5
2017-Oct-10 11:30N 33°46' W 118°17'0 0.3
2017-Oct-10 10:58N 33°46' W 118°16'0 0.0
2017-Oct-10 10:28N 33°46' W 118°16'0 0.0
2017-Oct-10 09:58N 33°46' W 118°16'0 0.0
2017-Oct-10 09:28N 33°46' W 118°16'0 0.0
2017-Oct-10 08:58N 33°46' W 118°16'0 0.0
2017-Oct-10 08:28N 33°46' W 118°16'0 0.0
2017-Oct-10 07:58N 33°46' W 118°16'0 0.0
2017-Oct-10 07:25N 33°46' W 118°16'0 0.0
2017-Oct-10 06:58N 33°46' W 118°16'0 0.0
2017-Oct-10 06:25N 33°46' W 118°16'0 0.0
2017-Oct-10 05:58N 33°46' W 118°16'0 0.0
2017-Oct-10 05:28N 33°46' W 118°16'0 0.0
2017-Oct-10 04:58N 33°46' W 118°16'0 0.0
2017-Oct-10 04:28N 33°46' W 118°16'0 0.0
2017-Oct-10 03:55N 33°46' W 118°16'0 0.0
2017-Oct-10 03:28N 33°46' W 118°16'0 0.0
2017-Oct-10 02:58N 33°46' W 118°16'0 0.0
2017-Oct-10 02:28N 33°46' W 118°16'0 0.0
2017-Oct-10 01:58N 33°46' W 118°16'0 0.0
2017-Oct-10 01:25N 33°46' W 118°16'0 0.0
2017-Oct-10 00:58N 33°46' W 118°16'0 0.0
2017-Oct-10 00:31N 33°46' W 118°16'0 0.0
2017-Oct-09 23:52N 33°46' W 118°16'0 0.0
2017-Oct-09 23:28N 33°46' W 118°16'0 0.0
2017-Oct-09 22:58N 33°46' W 118°16'0 0.0
2017-Oct-09 22:28N 33°46' W 118°16'0 0.5
2017-Oct-09 22:00N 33°46' W 118°16'2 3.2
2017-Oct-09 21:30N 33°44' W 118°17'3 6.8
2017-Oct-09 21:00N 33°41' W 118°14'4 7.5
2017-Oct-09 20:30N 33°38' W 118°12'4 8.4
2017-Oct-09 20:00N 33°35' W 118°09'510.1
2017-Oct-09 19:31N 33°30' W 118°07'510.3
2017-Oct-09 19:00N 33°25' W 118°05'510.7
2017-Oct-09 18:30N 33°20' W 118°03'610.9
2017-Oct-09 18:00N 33°15' W 118°00'510.9
2017-Oct-09 17:31N 33°10' W 117°58'611.1
2017-Oct-09 17:00N 33°05' W 117°56'4 7.2
2017-Oct-09 16:31N 33°01' W 117°54'714.0
2017-Oct-09 16:00N 32°55' W 117°51'1019.2
2017-Oct-09 15:30N 32°46' W 117°46'1020.1
2017-Oct-09 15:01N 32°37' W 117°41'1020.8
2017-Oct-09 14:30N 32°27' W 117°37'1020.7
2017-Oct-09 14:00N 32°17' W 117°34'1020.8
2017-Oct-09 13:31N 32°07' W 117°31'1320.5
2017-Oct-09 12:53N 31°55' W 117°26'2620.5
2017-Oct-09 11:35N 31°29' W 117°18'1120.8
2017-Oct-09 11:04N 31°19' W 117°15'320.5
2017-Oct-09 10:56N 31°16' W 117°14'1420.4
2017-Oct-09 10:15N 31°03' W 117°09'920.1
2017-Oct-09 09:48N 30°54' W 117°06'920.2
2017-Oct-09 09:22N 30°46' W 117°04'4120.1
2017-Oct-09 07:21N 30°07' W 116°51'1220.3
2017-Oct-09 06:45N 29°55' W 116°47'2220.7
2017-Oct-09 05:40N 29°34' W 116°40'4520.6
2017-Oct-09 03:30N 28°51' W 116°24'2220.6
2017-Oct-09 02:27N 28°31' W 116°17'1020.6
2017-Oct-09 01:59N 28°21' W 116°13'1020.6
2017-Oct-09 01:30N 28°12' W 116°10'1920.7
2017-Oct-09 00:36N 27°55' W 115°60'221.2
2017-Oct-09 00:30N 27°54' W 115°58'1021.2
2017-Oct-09 00:00N 27°45' W 115°51'1121.1
2017-Oct-08 23:29N 27°37' W 115°43'1021.2
2017-Oct-08 23:00N 27°29' W 115°36'1121.5
2017-Oct-08 22:30N 27°20' W 115°29'1122.3
2017-Oct-08 22:00N 27°11' W 115°22'1321.4
2017-Oct-08 21:23N 27°01' W 115°12'821.2
2017-Oct-08 20:59N 26°54' W 115°07'1020.8
2017-Oct-08 20:30N 26°46' W 114°60'1021.0
2017-Oct-08 20:00N 26°38' W 114°53'1221.0
2017-Oct-08 19:27N 26°28' W 114°45'921.3
2017-Oct-08 19:00N 26°21' W 114°39'1121.6
2017-Oct-08 18:30N 26°12' W 114°31'1321.8
2017-Oct-08 17:54N 26°02' W 114°23'921.7
2017-Oct-08 17:30N 25°55' W 114°17'1321.5
2017-Oct-08 16:55N 25°45' W 114°08'921.5
2017-Oct-08 16:29N 25°38' W 114°02'1021.4
2017-Oct-08 16:00N 25°29' W 113°55'2321.3
2017-Oct-08 14:55N 25°11' W 113°39'3521.3
2017-Oct-08 13:16N 24°43' W 113°16'821.9
2017-Oct-08 12:56N 24°37' W 113°11'921.3
2017-Oct-08 12:30N 24°30' W 113°05'  

Dump ship's entire track history